sensor_id;sensor_type;location;lat;lon;timestamp;pressure;altitude;pressure_sealevel;temperature;humidity
50226;BME280;36113;50.742;6.432;2023-01-01T00:02:26;148139.19;;;12.86;73.81
50226;BME280;36113;50.742;6.432;2023-01-01T00:04:51;148092.78;;;12.67;73.89
50226;BME280;36113;50.742;6.432;2023-01-01T00:07:16;148136.72;;;12.85;72.92
50226;BME280;36113;50.742;6.432;2023-01-01T00:09:41;148126.63;;;12.81;72.54
50226;BME280;36113;50.742;6.432;2023-01-01T00:12:25;148122.91;;;12.79;72.35
50226;BME280;36113;50.742;6.432;2023-01-01T00:14:51;148081.50;;;12.62;72.55
50226;BME280;36113;50.742;6.432;2023-01-01T00:17:16;148119.16;;;12.78;71.84
50226;BME280;36113;50.742;6.432;2023-01-01T00:19:41;148114.09;;;12.75;71.85
50226;BME280;36113;50.742;6.432;2023-01-01T00:22:06;148095.28;;;12.68;71.66
50226;BME280;36113;50.742;6.432;2023-01-01T00:24:32;148110.38;;;12.74;70.79
50226;BME280;36113;50.742;6.432;2023-01-01T00:26:57;148097.81;;;12.69;69.94
50226;BME280;36113;50.742;6.432;2023-01-01T00:29:22;148110.38;;;12.74;69.87
50226;BME280;36113;50.742;6.432;2023-01-01T00:31:48;148106.59;;;12.72;69.73
50226;BME280;36113;50.742;6.432;2023-01-01T00:34:13;148095.28;;;12.68;69.77
50226;BME280;36113;50.742;6.432;2023-01-01T00:36:39;148055.13;;;12.51;69.58
50226;BME280;36113;50.742;6.432;2023-01-01T00:39:04;148052.66;;;12.50;68.85
50226;BME280;36113;50.742;6.432;2023-01-01T00:41:29;148070.22;;;12.57;67.90
50226;BME280;36113;50.742;6.432;2023-01-01T00:43:55;148102.84;;;12.71;67.84
50226;BME280;36113;50.742;6.432;2023-01-01T00:46:20;148086.53;;;12.64;68.04
50226;BME280;36113;50.742;6.432;2023-01-01T00:48:46;148119.16;;;12.78;67.17
50226;BME280;36113;50.742;6.432;2023-01-01T00:51:11;148114.09;;;12.75;66.71
50226;BME280;36113;50.742;6.432;2023-01-01T00:53:37;148122.91;;;12.79;67.04
50226;BME280;36113;50.742;6.432;2023-01-01T00:56:03;148001.25;;;12.29;67.53
50226;BME280;36113;50.742;6.432;2023-01-01T00:58:28;148119.16;;;12.78;66.14
50226;BME280;36113;50.742;6.432;2023-01-01T01:00:53;148114.09;;;12.75;66.87
50226;BME280;36113;50.742;6.432;2023-01-01T01:03:19;148050.13;;;12.49;67.16
50226;BME280;36113;50.742;6.432;2023-01-01T01:08:33;148037.59;;;12.44;67.86
50226;BME280;36113;50.742;6.432;2023-01-01T01:11:14;148081.50;;;12.62;67.68
50226;BME280;36113;50.742;6.432;2023-01-01T01:13:40;148033.81;;;12.43;67.82
50226;BME280;36113;50.742;6.432;2023-01-01T01:16:32;148075.22;;;12.60;67.75
50226;BME280;36113;50.742;6.432;2023-01-01T01:19:00;148043.88;;;12.47;66.79
50226;BME280;36113;50.742;6.432;2023-01-01T01:21:27;148084.00;;;12.63;67.57
50226;BME280;36113;50.742;6.432;2023-01-01T01:23:53;148065.19;;;12.55;67.62
50226;BME280;36113;50.742;6.432;2023-01-01T01:26:25;148068.97;;;12.57;67.86
50226;BME280;36113;50.742;6.432;2023-01-01T01:28:52;147967.41;;;12.15;68.41
50226;BME280;36113;50.742;6.432;2023-01-01T01:31:18;148015.03;;;12.35;68.85
50226;BME280;36113;50.742;6.432;2023-01-01T01:33:44;148036.34;;;12.44;69.10
50226;BME280;36113;50.742;6.432;2023-01-01T01:36:10;148002.50;;;12.30;68.48
50226;BME280;36113;50.742;6.432;2023-01-01T01:38:36;148058.91;;;12.53;67.63
50226;BME280;36113;50.742;6.432;2023-01-01T01:41:02;148058.91;;;12.53;68.41
50226;BME280;36113;50.742;6.432;2023-01-01T01:46:02;148043.88;;;12.47;68.65
50226;BME280;36113;50.742;6.432;2023-01-01T01:48:33;148031.34;;;12.42;68.94
50226;BME280;36113;50.742;6.432;2023-01-01T01:51:01;148022.56;;;12.38;69.49
50226;BME280;36113;50.742;6.432;2023-01-01T01:53:29;148032.59;;;12.42;68.63
50226;BME280;36113;50.742;6.432;2023-01-01T01:55:59;147982.41;;;12.22;69.15
50226;BME280;36113;50.742;6.432;2023-01-01T01:58:27;147976.16;;;12.19;68.11
50226;BME280;36113;50.742;6.432;2023-01-01T02:00:54;148033.81;;;12.43;68.32
50226;BME280;36113;50.742;6.432;2023-01-01T02:03:30;148038.88;;;12.45;68.39
50226;BME280;36113;50.742;6.432;2023-01-01T02:05:58;148010.03;;;12.33;67.55
50226;BME280;36113;50.742;6.432;2023-01-01T02:08:24;148002.50;;;12.30;68.83
50226;BME280;36113;50.742;6.432;2023-01-01T02:10:49;148007.50;;;12.32;68.66
50226;BME280;36113;50.742;6.432;2023-01-01T02:13:15;148023.81;;;12.38;68.78
50226;BME280;36113;50.742;6.432;2023-01-01T02:15:52;148028.81;;;12.41;68.90
50226;BME280;36113;50.742;6.432;2023-01-01T02:18:20;148023.81;;;12.38;69.43
50226;BME280;36113;50.742;6.432;2023-01-01T02:21:07;148017.50;;;12.36;69.65
50226;BME280;36113;50.742;6.432;2023-01-01T02:23:57;148028.81;;;12.41;69.75
50226;BME280;36113;50.742;6.432;2023-01-01T02:26:28;147981.19;;;12.21;69.86
50226;BME280;36113;50.742;6.432;2023-01-01T02:31:34;148012.50;;;12.34;70.75
50226;BME280;36113;50.742;6.432;2023-01-01T02:34:06;147968.63;;;12.16;71.07
50226;BME280;36113;50.742;6.432;2023-01-01T02:36:38;147963.63;;;12.14;71.92
50226;BME280;36113;50.742;6.432;2023-01-01T02:39:05;148001.25;;;12.29;72.28
50226;BME280;36113;50.742;6.432;2023-01-01T02:41:43;147977.41;;;12.19;72.45
50226;BME280;36113;50.742;6.432;2023-01-01T02:44:12;148011.25;;;12.33;72.40
50226;BME280;36113;50.742;6.432;2023-01-01T02:46:37;147992.47;;;12.26;72.83
50226;BME280;36113;50.742;6.432;2023-01-01T02:49:03;147913.47;;;11.93;72.47
50226;BME280;36113;50.742;6.432;2023-01-01T03:00:02;147992.47;;;12.26;74.17
50226;BME280;36113;50.742;6.432;2023-01-01T03:06:08;148021.28;;;12.37;74.36
50226;BME280;36113;50.742;6.432;2023-01-01T03:12:02;148001.25;;;12.29;74.71
50226;BME280;36113;50.742;6.432;2023-01-01T03:14:49;148020.03;;;12.37;75.45
50226;BME280;36113;50.742;6.432;2023-01-01T03:19:51;148015.03;;;12.35;75.97
50226;BME280;36113;50.742;6.432;2023-01-01T03:22:19;148001.25;;;12.29;77.22
50226;BME280;36113;50.742;6.432;2023-01-01T03:24:52;148017.50;;;12.36;77.13
50226;BME280;36113;50.742;6.432;2023-01-01T03:27:23;148025.03;;;12.39;77.41
50226;BME280;36113;50.742;6.432;2023-01-01T03:29:52;148017.50;;;12.36;78.29
50226;BME280;36113;50.742;6.432;2023-01-01T03:32:22;148035.09;;;12.43;78.19
50226;BME280;36113;50.742;6.432;2023-01-01T03:35:11;148052.66;;;12.50;77.80
50226;BME280;36113;50.742;6.432;2023-01-01T03:37:38;148027.56;;;12.40;77.83
50226;BME280;36113;50.742;6.432;2023-01-01T03:40:05;148011.25;;;12.33;78.23
50226;BME280;36113;50.742;6.432;2023-01-01T03:42:39;148033.81;;;12.43;78.60
50226;BME280;36113;50.742;6.432;2023-01-01T03:45:16;148013.78;;;12.34;78.80
50226;BME280;36113;50.742;6.432;2023-01-01T03:47:44;148037.59;;;12.44;79.17
50226;BME280;36113;50.742;6.432;2023-01-01T03:50:13;148018.81;;;12.36;79.77
50226;BME280;36113;50.742;6.432;2023-01-01T03:57:41;148020.03;;;12.37;80.66
50226;BME280;36113;50.742;6.432;2023-01-01T04:00:14;147937.25;;;12.03;80.67
50226;BME280;36113;50.742;6.432;2023-01-01T04:02:59;148045.13;;;12.47;81.25
50226;BME280;36113;50.742;6.432;2023-01-01T04:05:27;148061.44;;;12.54;81.06
50226;BME280;36113;50.742;6.432;2023-01-01T04:07:54;148010.03;;;12.33;81.38
50226;BME280;36113;50.742;6.432;2023-01-01T04:10:21;147998.72;;;12.28;81.68
50226;BME280;36113;50.742;6.432;2023-01-01T04:12:48;148037.59;;;12.44;82.28
50226;BME280;36113;50.742;6.432;2023-01-01T04:15:20;147996.19;;;12.27;82.44
50226;BME280;36113;50.742;6.432;2023-01-01T04:17:46;148033.81;;;12.43;82.43
50226;BME280;36113;50.742;6.432;2023-01-01T04:20:12;148037.59;;;12.44;82.40
50226;BME280;36113;50.742;6.432;2023-01-01T04:22:37;147999.97;;;12.29;82.55
50226;BME280;36113;50.742;6.432;2023-01-01T04:25:04;147981.19;;;12.21;83.25
50226;BME280;36113;50.742;6.432;2023-01-01T04:27:29;147967.41;;;12.15;83.66
50226;BME280;36113;50.742;6.432;2023-01-01T04:29:55;148010.03;;;12.33;83.67
50226;BME280;36113;50.742;6.432;2023-01-01T04:32:20;148007.50;;;12.32;84.05
50226;BME280;36113;50.742;6.432;2023-01-01T04:34:46;147992.47;;;12.26;83.83
50226;BME280;36113;50.742;6.432;2023-01-01T04:37:11;147967.41;;;12.15;84.20
50226;BME280;36113;50.742;6.432;2023-01-01T04:39:40;148006.25;;;12.31;84.41
50226;BME280;36113;50.742;6.432;2023-01-01T04:42:06;147993.72;;;12.26;84.87
50226;BME280;36113;50.742;6.432;2023-01-01T04:44:31;148012.50;;;12.34;84.38
50226;BME280;36113;50.742;6.432;2023-01-01T04:46:56;148006.25;;;12.31;84.65
50226;BME280;36113;50.742;6.432;2023-01-01T04:49:22;147993.72;;;12.26;85.09
50226;BME280;36113;50.742;6.432;2023-01-01T04:51:47;147923.47;;;11.97;85.27
50226;BME280;36113;50.742;6.432;2023-01-01T04:54:12;147997.47;;;12.28;85.33
50226;BME280;36113;50.742;6.432;2023-01-01T04:56:38;147948.56;;;12.08;85.61
50226;BME280;36113;50.742;6.432;2023-01-01T04:59:03;147961.09;;;12.13;85.54
50226;BME280;36113;50.742;6.432;2023-01-01T05:01:29;147987.41;;;12.24;85.88
50226;BME280;36113;50.742;6.432;2023-01-01T05:03:56;147977.41;;;12.19;86.53
50226;BME280;36113;50.742;6.432;2023-01-01T05:06:22;147957.34;;;12.11;87.15
50226;BME280;36113;50.742;6.432;2023-01-01T05:08:49;147972.41;;;12.17;87.23
50226;BME280;36113;50.742;6.432;2023-01-01T05:11:17;147969.88;;;12.16;87.53
50226;BME280;36113;50.742;6.432;2023-01-01T05:13:45;147961.09;;;12.13;88.18
50226;BME280;36113;50.742;6.432;2023-01-01T05:16:13;147899.59;;;11.88;88.60
50226;BME280;36113;50.742;6.432;2023-01-01T05:18:39;147899.59;;;11.88;88.51
50226;BME280;36113;50.742;6.432;2023-01-01T05:21:07;147961.09;;;12.13;88.82
50226;BME280;36113;50.742;6.432;2023-01-01T05:23:33;147887.06;;;11.82;88.58
50226;BME280;36113;50.742;6.432;2023-01-01T05:25:59;147966.09;;;12.15;88.69
50226;BME280;36113;50.742;6.432;2023-01-01T05:28:25;147924.72;;;11.98;89.30
50226;BME280;36113;50.742;6.432;2023-01-01T05:30:51;147928.50;;;11.99;89.79
50226;BME280;36113;50.742;6.432;2023-01-01T05:33:17;147941.03;;;12.05;89.85
50226;BME280;36113;50.742;6.432;2023-01-01T05:35:43;147971.13;;;12.17;89.80
50226;BME280;36113;50.742;6.432;2023-01-01T05:38:08;147944.78;;;12.06;90.43
50226;BME280;36113;50.742;6.432;2023-01-01T05:40:33;147974.88;;;12.18;90.92
50226;BME280;36113;50.742;6.432;2023-01-01T05:42:59;147936.03;;;12.03;91.39
50226;BME280;36113;50.742;6.432;2023-01-01T05:45:24;147958.56;;;12.12;91.18
50226;BME280;36113;50.742;6.432;2023-01-01T05:47:49;147894.59;;;11.86;91.49
50226;BME280;36113;50.742;6.432;2023-01-01T05:50:15;147982.41;;;12.22;91.48
50226;BME280;36113;50.742;6.432;2023-01-01T05:52:40;148033.81;;;12.43;91.53
50226;BME280;36113;50.742;6.432;2023-01-01T05:55:05;148025.03;;;12.39;92.14
50226;BME280;36113;50.742;6.432;2023-01-01T05:57:31;148002.50;;;12.30;92.93
50226;BME280;36113;50.742;6.432;2023-01-01T05:59:56;148027.56;;;12.40;93.74
50226;BME280;36113;50.742;6.432;2023-01-01T06:02:21;147988.72;;;12.24;93.60
50226;BME280;36113;50.742;6.432;2023-01-01T06:04:47;147977.41;;;12.19;94.30
50226;BME280;36113;50.742;6.432;2023-01-01T06:07:13;148025.03;;;12.39;95.12
50226;BME280;36113;50.742;6.432;2023-01-01T06:09:38;147992.47;;;12.26;95.85
50226;BME280;36113;50.742;6.432;2023-01-01T06:12:04;148002.50;;;12.30;95.36
50226;BME280;36113;50.742;6.432;2023-01-01T06:14:29;147984.94;;;12.23;96.12
50226;BME280;36113;50.742;6.432;2023-01-01T06:16:54;147938.56;;;12.04;95.79
50226;BME280;36113;50.742;6.432;2023-01-01T06:19:20;147938.56;;;12.04;96.82
50226;BME280;36113;50.742;6.432;2023-01-01T06:21:45;147959.84;;;12.12;97.27
50226;BME280;36113;50.742;6.432;2023-01-01T06:24:10;147954.84;;;12.10;97.51
50226;BME280;36113;50.742;6.432;2023-01-01T06:26:36;147936.03;;;12.03;97.81
50226;BME280;36113;50.742;6.432;2023-01-01T06:29:01;147933.50;;;12.01;98.40
50226;BME280;36113;50.742;6.432;2023-01-01T06:31:28;147877.03;;;11.78;98.95
50226;BME280;36113;50.742;6.432;2023-01-01T06:33:53;147858.25;;;11.71;99.31
50226;BME280;36113;50.742;6.432;2023-01-01T06:36:21;147892.13;;;11.85;99.77
50226;BME280;36113;50.742;6.432;2023-01-01T06:38:49;147904.66;;;11.90;99.42
50226;BME280;36113;50.742;6.432;2023-01-01T06:41:20;147909.69;;;11.92;99.36
50226;BME280;36113;50.742;6.432;2023-01-01T06:43:45;147912.19;;;11.93;99.68
50226;BME280;36113;50.742;6.432;2023-01-01T06:46:21;147923.47;;;11.97;99.16
50226;BME280;36113;50.742;6.432;2023-01-01T06:48:49;147853.22;;;11.69;99.15
50226;BME280;36113;50.742;6.432;2023-01-01T06:51:17;147907.19;;;11.91;98.81
50226;BME280;36113;50.742;6.432;2023-01-01T06:53:43;147898.34;;;11.87;99.55
50226;BME280;36113;50.742;6.432;2023-01-01T06:56:09;147868.28;;;11.75;99.25
50226;BME280;36113;50.742;6.432;2023-01-01T06:58:34;147908.41;;;11.91;99.40
50226;BME280;36113;50.742;6.432;2023-01-01T07:03:39;147903.38;;;11.89;99.72
50226;BME280;36113;50.742;6.432;2023-01-01T07:06:06;147913.47;;;11.93;99.72
50226;BME280;36113;50.742;6.432;2023-01-01T07:08:32;147932.25;;;12.01;99.58
50226;BME280;36113;50.742;6.432;2023-01-01T07:10:57;147875.81;;;11.78;99.25
50226;BME280;36113;50.742;6.432;2023-01-01T07:13:27;147890.81;;;11.84;99.73
50226;BME280;36113;50.742;6.432;2023-01-01T07:15:52;147918.47;;;11.95;99.62
50226;BME280;36113;50.742;6.432;2023-01-01T07:18:19;147933.50;;;12.01;99.34
50226;BME280;36113;50.742;6.432;2023-01-01T07:20:56;147890.81;;;11.84;99.85
50226;BME280;36113;50.742;6.432;2023-01-01T07:23:22;147928.50;;;11.99;100.00
50226;BME280;36113;50.742;6.432;2023-01-01T07:25:49;147919.72;;;11.96;100.00
50226;BME280;36113;50.742;6.432;2023-01-01T07:28:14;147920.94;;;11.96;100.00
50226;BME280;36113;50.742;6.432;2023-01-01T07:30:40;147882.06;;;11.80;100.00
50226;BME280;36113;50.742;6.432;2023-01-01T07:33:05;147902.13;;;11.89;100.00
50226;BME280;36113;50.742;6.432;2023-01-01T07:35:34;147907.19;;;11.91;100.00
50226;BME280;36113;50.742;6.432;2023-01-01T07:37:59;147900.88;;;11.88;100.00
50226;BME280;36113;50.742;6.432;2023-01-01T07:40:24;147853.22;;;11.69;100.00
50226;BME280;36113;50.742;6.432;2023-01-01T07:42:50;147872.03;;;11.76;100.00
50226;BME280;36113;50.742;6.432;2023-01-01T07:45:16;147875.81;;;11.78;100.00
50226;BME280;36113;50.742;6.432;2023-01-01T07:47:41;147850.72;;;11.68;100.00
50226;BME280;36113;50.742;6.432;2023-01-01T07:50:14;147818.13;;;11.54;100.00
50226;BME280;36113;50.742;6.432;2023-01-01T07:52:40;147835.69;;;11.61;100.00
50226;BME280;36113;50.742;6.432;2023-01-01T07:55:16;147824.38;;;11.57;100.00
50226;BME280;36113;50.742;6.432;2023-01-01T07:57:43;147825.66;;;11.57;100.00
50226;BME280;36113;50.742;6.432;2023-01-01T08:00:11;147805.59;;;11.49;100.00
50226;BME280;36113;50.742;6.432;2023-01-01T08:02:36;147813.13;;;11.52;100.00
50226;BME280;36113;50.742;6.432;2023-01-01T08:05:02;147810.59;;;11.51;100.00
50226;BME280;36113;50.742;6.432;2023-01-01T08:07:27;147755.47;;;11.29;100.00
50226;BME280;36113;50.742;6.432;2023-01-01T08:09:52;147745.47;;;11.24;100.00
50226;BME280;36113;50.742;6.432;2023-01-01T08:12:18;147788.06;;;11.42;100.00
50226;BME280;36113;50.742;6.432;2023-01-01T08:14:43;147801.84;;;11.48;100.00
50226;BME280;36113;50.742;6.432;2023-01-01T08:17:08;147819.38;;;11.55;100.00
50226;BME280;36113;50.742;6.432;2023-01-01T08:19:34;147756.72;;;11.29;100.00
50226;BME280;36113;50.742;6.432;2023-01-01T08:21:59;147769.25;;;11.34;100.00
50226;BME280;36113;50.742;6.432;2023-01-01T08:24:24;147833.19;;;11.60;100.00
50226;BME280;36113;50.742;6.432;2023-01-01T08:26:50;147845.72;;;11.66;100.00
50226;BME280;36113;50.742;6.432;2023-01-01T08:29:16;147836.91;;;11.62;100.00
50226;BME280;36113;50.742;6.432;2023-01-01T08:31:42;147840.69;;;11.63;100.00
50226;BME280;36113;50.742;6.432;2023-01-01T08:34:07;147846.97;;;11.66;100.00
50226;BME280;36113;50.742;6.432;2023-01-01T08:36:32;147860.75;;;11.72;100.00
50226;BME280;36113;50.742;6.432;2023-01-01T08:38:58;147838.19;;;11.62;100.00
50226;BME280;36113;50.742;6.432;2023-01-01T08:41:23;147824.38;;;11.57;100.00
50226;BME280;36113;50.742;6.432;2023-01-01T08:43:49;147864.50;;;11.73;100.00
50226;BME280;36113;50.742;6.432;2023-01-01T08:46:14;147848.22;;;11.67;100.00
50226;BME280;36113;50.742;6.432;2023-01-01T08:48:40;147893.34;;;11.85;100.00
50226;BME280;36113;50.742;6.432;2023-01-01T08:51:05;147853.22;;;11.69;100.00
50226;BME280;36113;50.742;6.432;2023-01-01T08:53:31;147894.59;;;11.86;100.00
50226;BME280;36113;50.742;6.432;2023-01-01T08:55:58;147877.03;;;11.78;100.00
50226;BME280;36113;50.742;6.432;2023-01-01T08:58:23;147885.81;;;11.82;100.00
50226;BME280;36113;50.742;6.432;2023-01-01T09:00:49;147833.19;;;11.60;100.00
50226;BME280;36113;50.742;6.432;2023-01-01T09:03:15;147835.69;;;11.61;100.00
50226;BME280;36113;50.742;6.432;2023-01-01T09:05:40;147826.91;;;11.58;100.00
50226;BME280;36113;50.742;6.432;2023-01-01T09:08:10;147899.59;;;11.88;100.00
50226;BME280;36113;50.742;6.432;2023-01-01T09:10:35;147845.72;;;11.66;100.00
50226;BME280;36113;50.742;6.432;2023-01-01T09:13:01;147898.34;;;11.87;100.00
50226;BME280;36113;50.742;6.432;2023-01-01T09:15:26;147907.19;;;11.91;100.00
50226;BME280;36113;50.742;6.432;2023-01-01T09:17:51;147856.97;;;11.70;100.00
50226;BME280;36113;50.742;6.432;2023-01-01T09:20:17;147928.50;;;11.99;100.00
50226;BME280;36113;50.742;6.432;2023-01-01T09:22:42;147912.19;;;11.93;100.00
50226;BME280;36113;50.742;6.432;2023-01-01T09:25:07;147927.25;;;11.99;100.00
50226;BME280;36113;50.742;6.432;2023-01-01T09:27:33;147934.78;;;12.02;100.00
50226;BME280;36113;50.742;6.432;2023-01-01T09:29:58;147903.38;;;11.89;100.00
50226;BME280;36113;50.742;6.432;2023-01-01T09:32:24;147942.31;;;12.05;100.00
50226;BME280;36113;50.742;6.432;2023-01-01T09:34:49;147947.31;;;12.07;100.00
50226;BME280;36113;50.742;6.432;2023-01-01T09:37:15;147977.41;;;12.19;100.00
50226;BME280;36113;50.742;6.432;2023-01-01T09:39:40;147993.72;;;12.26;100.00
50226;BME280;36113;50.742;6.432;2023-01-01T09:42:47;148027.56;;;12.40;100.00
50226;BME280;36113;50.742;6.432;2023-01-01T09:47:46;148012.50;;;12.34;100.00
50226;BME280;36113;50.742;6.432;2023-01-01T09:50:31;148008.75;;;12.32;100.00
50226;BME280;36113;50.742;6.432;2023-01-01T09:53:01;148053.91;;;12.51;100.00
50226;BME280;36113;50.742;6.432;2023-01-01T09:55:45;147974.88;;;12.18;100.00
50226;BME280;36113;50.742;6.432;2023-01-01T09:58:12;148040.13;;;12.45;100.00
50226;BME280;36113;50.742;6.432;2023-01-01T10:00:41;148026.34;;;12.40;100.00
50226;BME280;36113;50.742;6.432;2023-01-01T10:03:31;148026.34;;;12.40;100.00
50226;BME280;36113;50.742;6.432;2023-01-01T10:14:27;148053.91;;;12.51;100.00
50226;BME280;36113;50.742;6.432;2023-01-01T10:16:55;148045.13;;;12.47;100.00
50226;BME280;36113;50.742;6.432;2023-01-01T10:22:23;148063.97;;;12.55;100.00
50226;BME280;36113;50.742;6.432;2023-01-01T10:24:58;148076.50;;;12.60;100.00
50226;BME280;36113;50.742;6.432;2023-01-01T10:29:52;148086.53;;;12.64;100.00
50226;BME280;36113;50.742;6.432;2023-01-01T10:32:29;148062.69;;;12.54;100.00
50226;BME280;36113;50.742;6.432;2023-01-01T10:34:56;148090.28;;;12.66;100.00
50226;BME280;36113;50.742;6.432;2023-01-01T10:37:21;148097.81;;;12.69;100.00
50226;BME280;36113;50.742;6.432;2023-01-01T10:39:47;148091.53;;;12.66;100.00
50226;BME280;36113;50.742;6.432;2023-01-01T10:42:14;148091.53;;;12.66;100.00
50226;BME280;36113;50.742;6.432;2023-01-01T10:44:40;148112.84;;;12.75;100.00
50226;BME280;36113;50.742;6.432;2023-01-01T10:47:26;148102.84;;;12.71;100.00
50226;BME280;36113;50.742;6.432;2023-01-01T10:49:54;148102.84;;;12.71;100.00
50226;BME280;36113;50.742;6.432;2023-01-01T10:52:24;148065.19;;;12.55;100.00
50226;BME280;36113;50.742;6.432;2023-01-01T10:54:50;148033.81;;;12.43;100.00
50226;BME280;36113;50.742;6.432;2023-01-01T10:57:29;148095.28;;;12.68;100.00
50226;BME280;36113;50.742;6.432;2023-01-01T11:00:09;148097.81;;;12.69;100.00
50226;BME280;36113;50.742;6.432;2023-01-01T11:02:35;148089.06;;;12.65;100.00
50226;BME280;36113;50.742;6.432;2023-01-01T11:05:19;148060.19;;;12.53;100.00
50226;BME280;36113;50.742;6.432;2023-01-01T11:07:45;148055.13;;;12.51;100.00
50226;BME280;36113;50.742;6.432;2023-01-01T11:10:17;148077.75;;;12.61;100.00
50226;BME280;36113;50.742;6.432;2023-01-01T11:12:44;148087.75;;;12.65;100.00
50226;BME280;36113;50.742;6.432;2023-01-01T11:15:21;148081.50;;;12.62;100.00
50226;BME280;36113;50.742;6.432;2023-01-01T11:17:47;148095.28;;;12.68;100.00
50226;BME280;36113;50.742;6.432;2023-01-01T11:20:17;148070.22;;;12.57;100.00
50226;BME280;36113;50.742;6.432;2023-01-01T11:22:48;148119.16;;;12.78;100.00
50226;BME280;36113;50.742;6.432;2023-01-01T11:25:28;148127.94;;;12.81;100.00
50226;BME280;36113;50.742;6.432;2023-01-01T11:28:26;148101.59;;;12.70;100.00
50226;BME280;36113;50.742;6.432;2023-01-01T11:31:14;148127.94;;;12.81;100.00
50226;BME280;36113;50.742;6.432;2023-01-01T11:33:44;148061.44;;;12.54;100.00
50226;BME280;36113;50.742;6.432;2023-01-01T11:36:10;148135.47;;;12.84;100.00
50226;BME280;36113;50.742;6.432;2023-01-01T11:38:36;148124.16;;;12.80;100.00
50226;BME280;36113;50.742;6.432;2023-01-01T11:41:05;148070.22;;;12.57;100.00
50226;BME280;36113;50.742;6.432;2023-01-01T11:43:39;148121.63;;;12.79;99.73
50226;BME280;36113;50.742;6.432;2023-01-01T11:46:09;148026.34;;;12.40;100.00
50226;BME280;36113;50.742;6.432;2023-01-01T11:48:40;148089.06;;;12.65;99.81
50226;BME280;36113;50.742;6.432;2023-01-01T11:51:08;148071.44;;;12.58;99.15
50226;BME280;36113;50.742;6.432;2023-01-01T11:53:40;148115.38;;;12.76;99.61
50226;BME280;36113;50.742;6.432;2023-01-01T11:56:14;148127.94;;;12.81;98.63
50226;BME280;36113;50.742;6.432;2023-01-01T11:58:51;148120.41;;;12.78;98.64
50226;BME280;36113;50.742;6.432;2023-01-01T12:01:38;148112.84;;;12.75;97.78
50226;BME280;36113;50.742;6.432;2023-01-01T12:04:08;148115.38;;;12.76;97.51
50226;BME280;36113;50.742;6.432;2023-01-01T12:06:39;148106.59;;;12.72;97.21
50226;BME280;36113;50.742;6.432;2023-01-01T12:09:46;148129.16;;;12.82;95.90
50226;BME280;36113;50.742;6.432;2023-01-01T12:12:36;148092.78;;;12.67;95.74
50226;BME280;36113;50.742;6.432;2023-01-01T12:15:26;148127.94;;;12.81;95.98
50226;BME280;36113;50.742;6.432;2023-01-01T12:20:53;148125.41;;;12.80;94.79
50226;BME280;36113;50.742;6.432;2023-01-01T12:23:21;148120.41;;;12.78;95.17
50226;BME280;36113;50.742;6.432;2023-01-01T12:26:05;148089.06;;;12.65;95.35
50226;BME280;36113;50.742;6.432;2023-01-01T12:31:23;148129.16;;;12.82;95.00
50226;BME280;36113;50.742;6.432;2023-01-01T12:36:56;148121.63;;;12.79;94.38
50226;BME280;36113;50.742;6.432;2023-01-01T12:50:33;148144.25;;;12.88;90.84
50226;BME280;36113;50.742;6.432;2023-01-01T12:53:18;148163.03;;;12.95;90.00
50226;BME280;36113;50.742;6.432;2023-01-01T12:58:34;148141.72;;;12.87;90.64
50226;BME280;36113;50.742;6.432;2023-01-01T13:01:18;148193.16;;;13.08;90.13
50226;BME280;36113;50.742;6.432;2023-01-01T13:06:17;148217.00;;;13.18;89.16
50226;BME280;36113;50.742;6.432;2023-01-01T13:08:43;148181.88;;;13.03;88.90
50226;BME280;36113;50.742;6.432;2023-01-01T13:11:12;148200.69;;;13.11;89.91
50226;BME280;36113;50.742;6.432;2023-01-01T13:13:38;148164.28;;;12.96;90.14
50226;BME280;36113;50.742;6.432;2023-01-01T13:16:04;148170.56;;;12.99;89.34
50226;BME280;36113;50.742;6.432;2023-01-01T13:18:33;148219.53;;;13.19;89.19
50226;BME280;36113;50.742;6.432;2023-01-01T13:21:02;148196.91;;;13.09;89.41
50226;BME280;36113;50.742;6.432;2023-01-01T13:39:54;148156.78;;;12.93;91.46
50226;BME280;36113;50.742;6.432;2023-01-01T13:47:49;148181.88;;;13.03;92.49
50226;BME280;36113;50.742;6.432;2023-01-01T13:50:42;148165.56;;;12.97;91.06
50226;BME280;36113;50.742;6.432;2023-01-01T13:58:38;148164.28;;;12.96;92.07
50226;BME280;36113;50.742;6.432;2023-01-01T14:03:45;148124.16;;;12.80;93.55
50226;BME280;36113;50.742;6.432;2023-01-01T14:06:23;148130.41;;;12.82;93.99
50226;BME280;36113;50.742;6.432;2023-01-01T14:09:04;148080.22;;;12.62;94.61
50226;BME280;36113;50.742;6.432;2023-01-01T14:11:30;148018.81;;;12.36;93.85
50226;BME280;36113;50.742;6.432;2023-01-01T14:13:55;148067.69;;;12.56;94.41
50226;BME280;36113;50.742;6.432;2023-01-01T14:16:21;148109.09;;;12.73;94.58
50226;BME280;36113;50.742;6.432;2023-01-01T14:18:50;148072.75;;;12.59;95.17
50226;BME280;36113;50.742;6.432;2023-01-01T14:21:22;148075.22;;;12.60;96.56
50226;BME280;36113;50.742;6.432;2023-01-01T14:24:00;148015.03;;;12.35;97.40
50226;BME280;36113;50.742;6.432;2023-01-01T14:26:27;148056.44;;;12.52;97.73
50226;BME280;36113;50.742;6.432;2023-01-01T14:28:58;148002.50;;;12.30;97.73
50226;BME280;36113;50.742;6.432;2023-01-01T14:31:30;148043.88;;;12.47;98.78
50226;BME280;36113;50.742;6.432;2023-01-01T14:33:56;148027.56;;;12.40;99.59
50226;BME280;36113;50.742;6.432;2023-01-01T14:36:29;148018.81;;;12.36;99.84
50226;BME280;36113;50.742;6.432;2023-01-01T14:38:56;147963.63;;;12.14;100.00
50226;BME280;36113;50.742;6.432;2023-01-01T14:41:33;147991.19;;;12.25;100.00
50226;BME280;36113;50.742;6.432;2023-01-01T14:44:06;147966.09;;;12.15;100.00